Time;durP1;ratioP1;P1;durP2;ratioP2;P2;SDS_P1;SDS_P2;PMS_P1;PMS_P2;Temp;Humidity;BMP_temperature;BMP_pressure;BME280_temperature;BME280_humidity;BME280_pressure;Samples;Min_cycle;Max_cycle;Signal;HPM_P1;HPM_P2
2024/04/12 00:00:21;;;;;;;;;;;;;;;16.39;45.68;95620.59;4531967;26;19928;-60
2024/04/12 00:02:26;;;;;;;;;;;;;;;16.26;46.38;95625.56;4529279;26;20280;-60
2024/04/12 00:04:35;;;;;;;;;;;;;;;15.92;46.76;95630.16;4530896;26;20284;-61
2024/04/12 00:06:37;;;;;;;;;;;;;;;15.23;47.99;95632.38;4533132;26;19936;-60
2024/04/12 00:08:39;;;;;;;;;;;;;;;14.57;49.45;95635.91;4533662;26;19928;-60
2024/04/12 00:10:41;;;;;;;;;;;;;;;14.20;50.52;95637.06;4532654;26;19940;-60
2024/04/12 00:12:45;;;;;;;;;;;;;;;14.19;51.03;95638.84;4552436;26;19928;-60
2024/04/12 00:14:50;;;;;;;;;;;;;;;14.08;51.02;95639.94;4533897;26;19944;-60
2024/04/12 00:16:56;;;;;;;;;;;;;;;14.11;51.02;95638.81;4534176;26;19932;-60
2024/04/12 00:19:07;;;;;;;;;;;;;;;14.43;50.17;95639.94;4541238;26;20759;-59
2024/04/12 00:21:09;;;;;;;;;;;;;;;14.70;49.40;95636.25;4533588;26;19928;-60
2024/04/12 00:23:12;;;;;;;;;;;;;;;14.95;48.94;95634.50;4534739;26;19968;-60
2024/04/12 00:25:14;;;;;;;;;;;;;;;15.17;48.38;95640.94;4547684;26;20116;-62
2024/04/12 00:27:16;;;;;;;;;;;;;;;15.32;48.13;95638.47;4516228;26;19973;-61
2024/04/12 00:29:36;;;;;;;;;;;;;;;15.43;48.19;95634.66;4527306;26;19937;-60
2024/04/12 00:31:42;;;;;;;;;;;;;;;15.49;48.28;95642.75;4525067;26;19935;-60
2024/04/12 00:33:46;;;;;;;;;;;;;;;15.56;47.81;95635.81;4528863;26;19936;-60
2024/04/12 00:35:49;;;;;;;;;;;;;;;15.64;47.49;95644.69;4528135;26;19928;-59
2024/04/12 00:37:53;;;;;;;;;;;;;;;15.70;47.39;95642.25;4524664;26;20284;-61
2024/04/12 00:39:56;;;;;;;;;;;;;;;15.75;46.82;95644.41;4528618;26;19928;-61
2024/04/12 00:41:59;;;;;;;;;;;;;;;15.80;46.67;95638.63;4527794;26;19928;-61
2024/04/12 00:44:03;;;;;;;;;;;;;;;15.83;46.69;95654.13;4532231;26;19928;-63
2024/04/12 00:46:05;;;;;;;;;;;;;;;15.85;46.81;95652.13;4531997;26;20479;-60
2024/04/12 00:48:07;;;;;;;;;;;;;;;15.86;46.53;95644.03;4529392;26;19939;-60
2024/04/12 00:50:15;;;;;;;;;;;;;;;15.90;46.26;95649.81;4527938;26;19935;-61
2024/04/12 00:52:22;;;;;;;;;;;;;;;15.90;46.65;95641.91;4534242;26;19935;-61
2024/04/12 00:54:25;;;;;;;;;;;;;;;15.90;46.51;95644.53;4530242;26;19963;-58
2024/04/12 00:56:27;;;;;;;;;;;;;;;15.91;46.45;95640.88;4524979;26;20471;-61
2024/04/12 00:58:37;;;;;;;;;;;;;;;15.91;46.58;95648.81;4528510;26;19928;-61
2024/04/12 01:00:46;;;;;;;;;;;;;;;15.92;46.74;95642.56;4526488;26;19943;-60
2024/04/12 01:02:49;;;;;;;;;;;;;;;15.92;46.49;95643.38;4527885;26;19961;-60
2024/04/12 01:04:53;;;;;;;;;;;;;;;15.95;46.30;95643.03;4529618;26;19928;-60
2024/04/12 01:06:56;;;;;;;;;;;;;;;15.93;46.05;95645.00;4536984;26;20039;-60
2024/04/12 01:08:59;;;;;;;;;;;;;;;15.96;46.23;95641.22;4525479;26;19928;-58
2024/04/12 01:11:02;;;;;;;;;;;;;;;15.99;46.84;95648.00;4555424;26;19955;-60
2024/04/12 01:13:04;;;;;;;;;;;;;;;15.99;46.80;95643.53;4533004;26;19940;-60
2024/04/12 01:15:07;;;;;;;;;;;;;;;15.99;46.95;95638.22;4533850;26;19944;-59
2024/04/12 01:17:10;;;;;;;;;;;;;;;16.01;47.04;95635.44;4533262;26;20347;-60
2024/04/12 01:19:12;;;;;;;;;;;;;;;15.96;46.73;95639.41;4534935;26;19932;-60
2024/04/12 01:21:14;;;;;;;;;;;;;;;15.92;47.15;95638.09;4513370;26;20004;-58
2024/04/12 01:23:17;;;;;;;;;;;;;;;15.90;47.42;95634.78;4511029;26;19939;-58
2024/04/12 01:25:19;;;;;;;;;;;;;;;15.90;46.91;95637.44;4517650;26;19928;-58
2024/04/12 01:27:22;;;;;;;;;;;;;;;15.89;46.85;95635.78;4527596;26;19996;-59
2024/04/12 01:29:24;;;;;;;;;;;;;;;15.82;47.22;95626.88;4534703;26;19928;-60
2024/04/12 01:31:27;;;;;;;;;;;;;;;15.84;47.44;95635.47;4533238;26;19928;-57
2024/04/12 01:33:31;;;;;;;;;;;;;;;15.83;47.52;95628.53;4521948;26;19936;-60
2024/04/12 01:35:33;;;;;;;;;;;;;;;15.84;47.71;95635.47;4533548;26;19940;-60
2024/04/12 01:37:36;;;;;;;;;;;;;;;15.82;47.25;95632.16;4527753;26;20242;-59
2024/04/12 01:39:43;;;;;;;;;;;;;;;15.81;47.26;95630.53;4549008;26;19939;-59
2024/04/12 01:41:45;;;;;;;;;;;;;;;15.81;47.47;95624.41;4530581;26;20024;-61
2024/04/12 01:43:52;;;;;;;;;;;;;;;15.80;47.45;95633.31;4514402;26;19938;-60
2024/04/12 01:45:54;;;;;;;;;;;;;;;15.79;47.50;95629.88;4516661;26;19928;-60
2024/04/12 01:47:57;;;;;;;;;;;;;;;15.81;47.50;95632.31;4520678;26;19956;-58
2024/04/12 01:50:01;;;;;;;;;;;;;;;15.80;47.46;95633.31;4528274;26;19939;-61
2024/04/12 01:52:12;;;;;;;;;;;;;;;15.75;47.44;95632.00;4530316;26;20614;-59
2024/04/12 01:54:14;;;;;;;;;;;;;;;15.76;47.82;95636.28;4529534;26;19941;-61
2024/04/12 01:56:16;;;;;;;;;;;;;;;15.76;47.83;95635.47;4513428;26;20419;-59
2024/04/12 01:58:19;;;;;;;;;;;;;;;15.71;47.55;95640.41;4529747;26;20219;-60
2024/04/12 02:00:26;;;;;;;;;;;;;;;15.68;47.91;95636.28;4533455;26;20377;-59
2024/04/12 02:02:28;;;;;;;;;;;;;;;15.69;47.59;95643.22;4523924;26;19965;-60
2024/04/12 02:04:34;;;;;;;;;;;;;;;15.67;48.26;95633.81;4531870;26;20334;-61
2024/04/12 02:06:42;;;;;;;;;;;;;;;15.63;48.05;95640.41;4529884;26;20007;-60
2024/04/12 02:08:44;;;;;;;;;;;;;;;15.56;48.36;95635.81;4528180;26;19928;-64
2024/04/12 02:10:48;;;;;;;;;;;;;;;15.41;48.98;95645.38;4529539;26;19959;-60
2024/04/12 02:12:53;;;;;;;;;;;;;;;15.24;48.97;95639.28;4513014;26;20000;-60
2024/04/12 02:14:59;;;;;;;;;;;;;;;15.10;49.36;95637.28;4521473;26;19928;-61
2024/04/12 02:17:02;;;;;;;;;;;;;;;15.06;49.66;95633.34;4525267;26;19929;-59
2024/04/12 02:19:06;;;;;;;;;;;;;;;15.04;49.67;95649.34;4521982;26;19960;-59
2024/04/12 02:21:10;;;;;;;;;;;;;;;15.09;49.64;95646.22;4527139;26;20052;-59
2024/04/12 02:23:15;;;;;;;;;;;;;;;15.15;49.49;95641.09;4529273;26;20427;-59
2024/04/12 02:25:17;;;;;;;;;;;;;;;15.24;49.28;95641.09;4526790;26;19972;-58
2024/04/12 02:27:19;;;;;;;;;;;;;;;15.28;49.27;95642.44;4526279;26;19928;-59
2024/04/12 02:29:21;;;;;;;;;;;;;;;15.33;49.02;95643.56;4528333;26;19997;-59
2024/04/12 02:31:23;;;;;;;;;;;;;;;15.41;48.66;95642.75;4529746;26;19975;-60
2024/04/12 02:33:27;;;;;;;;;;;;;;;15.42;48.64;95641.75;4533319;26;20065;-60
2024/04/12 02:35:30;;;;;;;;;;;;;;;15.48;48.51;95646.38;4541297;26;20382;-61
2024/04/12 02:37:34;;;;;;;;;;;;;;;15.46;48.60;95650.16;4522872;26;19959;-60
2024/04/12 02:39:40;;;;;;;;;;;;;;;15.41;48.65;95645.38;4538949;26;20024;-60
2024/04/12 02:41:42;;;;;;;;;;;;;;;15.42;48.67;95646.22;4530285;26;20023;-59
2024/04/12 02:43:55;;;;;;;;;;;;;;;15.45;48.36;95645.91;4534793;26;20343;-59
2024/04/12 02:46:01;;;;;;;;;;;;;;;15.42;48.61;95652.31;4525893;26;19928;-60
2024/04/12 02:48:10;;;;;;;;;;;;;;;15.03;49.63;95649.50;4533938;26;19939;-59
2024/04/12 02:50:15;;;;;;;;;;;;;;;14.95;50.12;95650.31;4532322;26;20071;-59
2024/04/12 02:52:18;;;;;;;;;;;;;;;14.91;50.18;95644.53;4528417;26;20407;-59
2024/04/12 02:54:19;;;;;;;;;;;;;;;14.71;50.45;95653.72;4535681;26;20243;-60
2024/04/12 02:56:27;;;;;;;;;;;;;;;14.46;51.23;95658.06;4531083;26;20368;-61
2024/04/12 02:58:29;;;;;;;;;;;;;;;14.35;51.63;95659.19;4532898;26;19980;-61
2024/04/12 03:00:32;;;;;;;;;;;;;;;14.39;51.60;95649.97;4539741;26;20035;-62
2024/04/12 03:02:35;;;;;;;;;;;;;;;14.48;51.37;95653.47;4527051;26;20498;-60
2024/04/12 03:04:38;;;;;;;;;;;;;;;14.48;51.19;95656.94;4525060;26;20391;-60
2024/04/12 03:06:40;;;;;;;;;;;;;;;14.44;51.24;95654.78;4534295;26;19932;-60
2024/04/12 03:08:49;;;;;;;;;;;;;;;14.53;51.38;95651.16;4527217;26;20369;-58
2024/04/12 03:10:51;;;;;;;;;;;;;;;14.56;51.08;95656.16;4534371;26;19928;-60
2024/04/12 03:12:52;;;;;;;;;;;;;;;14.66;50.81;95648.94;4531987;26;19936;-60
2024/04/12 03:14:54;;;;;;;;;;;;;;;14.78;50.74;95645.97;4537848;26;19936;-58
2024/04/12 03:16:56;;;;;;;;;;;;;;;14.81;50.54;95651.75;4516831;26;20361;-60
2024/04/12 03:18:58;;;;;;;;;;;;;;;14.87;50.43;95652.94;4518548;26;20058;-60
2024/04/12 03:21:00;;;;;;;;;;;;;;;14.87;50.34;95653.75;4530907;26;20306;-60
2024/04/12 03:23:04;;;;;;;;;;;;;;;14.87;50.24;95651.13;4527510;26;19933;-60
2024/04/12 03:25:06;;;;;;;;;;;;;;;14.90;50.48;95649.97;4531953;26;19996;-61
2024/04/12 03:27:08;;;;;;;;;;;;;;;14.95;50.25;95663.53;4540362;26;19934;-58
2024/04/12 03:29:12;;;;;;;;;;;;;;;15.00;50.27;95657.75;4523463;26;20800;-60
2024/04/12 03:31:14;;;;;;;;;;;;;;;14.99;50.36;95656.91;4516025;26;20039;-58
2024/04/12 03:33:16;;;;;;;;;;;;;;;14.98;49.91;95659.72;4537188;26;19935;-61
2024/04/12 03:35:20;;;;;;;;;;;;;;;14.97;50.10;95653.63;4532839;26;19936;-59
2024/04/12 03:37:36;;;;;;;;;;;;;;;15.00;50.43;95660.38;4532125;26;19928;-60
2024/04/12 03:39:38;;;;;;;;;;;;;;;14.99;50.36;95659.53;4533761;26;19939;-59
2024/04/12 03:41:43;;;;;;;;;;;;;;;14.99;50.09;95667.44;4525286;26;19928;-60
2024/04/12 03:43:45;;;;;;;;;;;;;;;14.93;50.66;95663.66;4539814;26;19936;-60
2024/04/12 03:45:54;;;;;;;;;;;;;;;14.96;50.67;95673.06;4522840;26;19960;-60
2024/04/12 03:48:04;;;;;;;;;;;;;;;14.97;50.39;95681.81;4531539;26;19928;-59
2024/04/12 03:50:13;;;;;;;;;;;;;;;14.99;50.28;95674.56;4527190;26;19932;-60
2024/04/12 03:52:19;;;;;;;;;;;;;;;15.01;50.15;95680.50;4529786;26;19928;-59
2024/04/12 03:54:25;;;;;;;;;;;;;;;15.05;50.49;95680.00;4524518;26;19928;-58
2024/04/12 03:56:28;;;;;;;;;;;;;;;15.06;50.43;95683.50;4518114;26;19928;-60
2024/04/12 03:58:30;;;;;;;;;;;;;;;15.08;50.58;95687.63;4526376;26;19948;-60
2024/04/12 04:00:38;;;;;;;;;;;;;;;15.07;50.47;95683.31;4533942;26;20003;-60
2024/04/12 04:02:39;;;;;;;;;;;;;;;15.08;50.48;95692.88;4520120;26;20318;-60
2024/04/12 04:04:44;;;;;;;;;;;;;;;15.08;50.19;95689.44;4532767;26;19931;-60
2024/04/12 04:06:54;;;;;;;;;;;;;;;15.11;50.15;95692.56;4518557;26;20291;-61
2024/04/12 04:08:56;;;;;;;;;;;;;;;15.09;50.81;95693.72;4522948;26;20592;-60
2024/04/12 04:11:02;;;;;;;;;;;;;;;15.10;50.81;95701.47;4524589;26;19935;-61
2024/04/12 04:13:04;;;;;;;;;;;;;;;15.15;50.78;95696.53;4527742;26;20000;-60
2024/04/12 04:15:06;;;;;;;;;;;;;;;15.13;51.00;95705.59;4533717;26;19928;-63
2024/04/12 04:17:10;;;;;;;;;;;;;;;15.09;51.32;95699.81;4532590;26;20083;-62
2024/04/12 04:19:12;;;;;;;;;;;;;;;15.09;51.54;95699.81;4527644;26;19928;-60
2024/04/12 04:21:14;;;;;;;;;;;;;;;15.14;51.73;95707.22;4530417;26;20290;-60
2024/04/12 04:23:17;;;;;;;;;;;;;;;15.18;51.65;95705.91;4527843;26;19928;-61
2024/04/12 04:25:19;;;;;;;;;;;;;;;15.23;51.69;95705.44;4535069;26;20052;-61
2024/04/12 04:27:21;;;;;;;;;;;;;;;15.24;51.40;95704.47;4533141;26;19977;-59
2024/04/12 04:29:23;;;;;;;;;;;;;;;15.23;51.30;95706.28;4527927;26;20359;-59
2024/04/12 04:31:25;;;;;;;;;;;;;;;15.22;51.42;95709.06;4542858;26;19934;-60
2024/04/12 04:33:27;;;;;;;;;;;;;;;15.24;51.53;95707.91;4533689;26;19936;-61
2024/04/12 04:35:33;;;;;;;;;;;;;;;15.29;51.71;95704.78;4541973;26;19931;-62
2024/04/12 04:37:39;;;;;;;;;;;;;;;15.36;51.52;95705.78;4549803;25;20335;-58
2024/04/12 04:39:41;;;;;;;;;;;;;;;15.40;51.08;95715.03;4531148;26;19965;-58
2024/04/12 04:41:43;;;;;;;;;;;;;;;15.41;51.06;95711.41;4514612;26;20286;-62
2024/04/12 04:43:46;;;;;;;;;;;;;;;15.41;50.69;95708.75;4540200;26;19928;-61
2024/04/12 04:45:48;;;;;;;;;;;;;;;15.27;51.08;95710.25;4533708;26;20011;-60
2024/04/12 04:47:50;;;;;;;;;;;;;;;15.24;51.40;95710.56;4554009;26;19928;-57
2024/04/12 04:49:54;;;;;;;;;;;;;;;15.15;51.35;95708.91;4530568;26;19960;-59
2024/04/12 04:51:56;;;;;;;;;;;;;;;15.19;51.06;95707.59;4527411;26;20484;-59
2024/04/12 04:53:59;;;;;;;;;;;;;;;15.29;50.55;95710.06;4543797;25;20301;-57
2024/04/12 04:56:01;;;;;;;;;;;;;;;15.44;50.51;95712.88;4534708;26;20409;-60
2024/04/12 04:58:03;;;;;;;;;;;;;;;15.60;50.10;95707.63;4532619;26;19928;-62
2024/04/12 05:00:22;;;;;;;;;;;;;;;15.70;49.73;95707.44;4535440;26;19939;-59
2024/04/12 05:02:34;;;;;;;;;;;;;;;15.84;49.50;95713.91;4513703;26;20156;-58
2024/04/12 05:04:36;;;;;;;;;;;;;;;15.88;49.62;95709.94;4516130;26;20004;-60
2024/04/12 05:06:38;;;;;;;;;;;;;;;15.88;49.55;95715.22;4532393;26;19934;-61
2024/04/12 05:08:42;;;;;;;;;;;;;;;15.84;50.08;95717.38;4532764;26;19935;-59
2024/04/12 05:10:46;;;;;;;;;;;;;;;15.61;50.52;95722.44;4520622;26;19928;-57
2024/04/12 05:12:49;;;;;;;;;;;;;;;15.68;50.77;95723.47;4534277;26;20469;-60
2024/04/12 05:14:54;;;;;;;;;;;;;;;15.79;51.04;95721.50;4516902;26;19996;-59
2024/04/12 05:16:56;;;;;;;;;;;;;;;15.94;50.40;95725.94;4527310;26;19935;-58
2024/04/12 05:19:08;;;;;;;;;;;;;;;16.05;49.29;95723.97;4531363;26;20232;-60
2024/04/12 05:21:13;;;;;;;;;;;;;;;16.22;49.33;95728.22;4533402;26;19972;-61
2024/04/12 05:23:20;;;;;;;;;;;;;;;16.26;49.32;95728.69;4530439;26;19939;-58
2024/04/12 05:25:22;;;;;;;;;;;;;;;15.95;49.81;95730.22;4530334;26;19936;-60
2024/04/12 05:27:25;;;;;;;;;;;;;;;15.68;50.70;95730.53;4531023;26;19932;-60
2024/04/12 05:29:28;;;;;;;;;;;;;;;15.10;51.82;95730.50;4534243;26;19931;-59
2024/04/12 05:31:30;;;;;;;;;;;;;;;14.88;52.32;95733.72;4520535;26;19993;-59
2024/04/12 05:33:33;;;;;;;;;;;;;;;14.90;52.60;95727.28;4516427;26;19928;-62
2024/04/12 05:35:35;;;;;;;;;;;;;;;15.07;51.78;95730.81;4514674;26;20027;-59
2024/04/12 05:37:43;;;;;;;;;;;;;;;15.19;51.05;95725.25;4528197;26;19928;-60
2024/04/12 05:39:46;;;;;;;;;;;;;;;15.48;51.08;95728.22;4508986;26;19928;-61
2024/04/12 05:41:53;;;;;;;;;;;;;;;15.71;50.37;95735.50;4526253;26;19927;-59
2024/04/12 05:43:55;;;;;;;;;;;;;;;15.88;49.29;95728.44;4521764;26;19960;-60
2024/04/12 05:45:57;;;;;;;;;;;;;;;16.04;49.05;95725.75;4528876;26;20024;-62
2024/04/12 05:47:59;;;;;;;;;;;;;;;16.22;48.42;95728.22;4515349;26;19997;-60
2024/04/12 05:50:01;;;;;;;;;;;;;;;16.32;47.93;95731.47;4524408;26;20031;-60
2024/04/12 05:52:06;;;;;;;;;;;;;;;16.43;47.63;95730.28;4527218;26;20025;-60
2024/04/12 05:54:15;;;;;;;;;;;;;;;16.38;48.02;95733.44;4520719;26;19929;-59
2024/04/12 05:56:25;;;;;;;;;;;;;;;16.35;47.81;95733.81;4512539;26;20046;-60
2024/04/12 05:58:27;;;;;;;;;;;;;;;16.34;47.52;95726.84;4516997;26;20023;-62
2024/04/12 06:00:29;;;;;;;;;;;;;;;16.26;48.46;95732.19;4514720;26;19956;-60
2024/04/12 06:02:33;;;;;;;;;;;;;;;16.28;48.39;95732.84;4523657;26;19928;-60
2024/04/12 06:04:36;;;;;;;;;;;;;;;16.37;48.12;95728.34;4533223;26;19962;-60
2024/04/12 06:06:42;;;;;;;;;;;;;;;16.53;48.32;95733.56;4523848;26;20540;-59
2024/04/12 06:08:45;;;;;;;;;;;;;;;16.73;48.01;95730.53;4530014;26;20510;-61
2024/04/12 06:10:48;;;;;;;;;;;;;;;16.80;47.26;95736.81;4528831;26;19943;-60
2024/04/12 06:12:50;;;;;;;;;;;;;;;16.77;47.28;95730.00;4539509;26;20394;-63
2024/04/12 06:14:51;;;;;;;;;;;;;;;16.70;47.80;95731.69;4525578;26;19940;-60
2024/04/12 06:16:57;;;;;;;;;;;;;;;16.72;47.77;95732.34;4528970;26;20009;-61
2024/04/12 06:19:00;;;;;;;;;;;;;;;16.85;47.67;95734.47;4533995;26;19940;-61
2024/04/12 06:21:02;;;;;;;;;;;;;;;17.08;46.60;95729.25;4529568;26;20292;-61
2024/04/12 06:23:09;;;;;;;;;;;;;;;17.30;46.54;95727.63;4515988;26;20386;-63
2024/04/12 06:25:14;;;;;;;;;;;;;;;17.57;50.68;95736.03;4516585;26;20409;-65
2024/04/12 06:27:16;;;;;;;;;;;;;;;17.82;45.84;95731.41;4528259;26;20063;-60
2024/04/12 06:29:18;;;;;;;;;;;;;;;17.89;45.09;95723.56;4509926;26;20457;-67
2024/04/12 06:31:34;;;;;;;;;;;;;;;17.91;44.54;95729.50;4515622;26;20359;-63
2024/04/12 06:33:39;;;;;;;;;;;;;;;17.50;45.38;95733.25;4532598;26;19927;-65
2024/04/12 06:35:44;;;;;;;;;;;;;;;17.68;45.50;95726.84;4531023;26;19931;-59
2024/04/12 06:37:47;;;;;;;;;;;;;;;17.90;44.58;95728.69;4518818;26;19996;-62
2024/04/12 06:39:55;;;;;;;;;;;;;;;17.94;44.04;95727.31;4528528;26;19935;-61
2024/04/12 06:42:03;;;;;;;;;;;;;;;18.13;43.71;95728.63;4532845;26;19932;-62
2024/04/12 06:44:05;;;;;;;;;;;;;;;18.10;44.24;95722.88;4531242;26;19944;-58
2024/04/12 06:46:12;;;;;;;;;;;;;;;17.85;44.32;95724.91;4531786;26;19947;-60
2024/04/12 06:48:19;;;;;;;;;;;;;;;17.52;45.41;95725.16;4522080;26;19928;-60
2024/04/12 06:50:21;;;;;;;;;;;;;;;17.34;45.35;95731.56;4512430;26;19932;-59
2024/04/12 06:52:23;;;;;;;;;;;;;;;17.53;45.86;95727.63;4532437;26;19983;-61
2024/04/12 06:54:25;;;;;;;;;;;;;;;17.57;46.10;95731.56;4524052;26;20379;-61
2024/04/12 06:56:27;;;;;;;;;;;;;;;17.28;46.12;95734.91;4532074;26;20020;-62
2024/04/12 06:58:29;;;;;;;;;;;;;;;17.28;45.94;95728.78;4525474;26;20595;-61
2024/04/12 07:00:31;;;;;;;;;;;;;;;17.04;46.70;95732.41;4518865;26;20339;-61
2024/04/12 07:02:33;;;;;;;;;;;;;;;17.15;46.47;95739.97;4529445;26;19944;-62
2024/04/12 07:04:38;;;;;;;;;;;;;;;17.10;46.50;95727.25;4520448;26;19939;-62
2024/04/12 07:06:40;;;;;;;;;;;;;;;17.40;46.69;95727.38;4523463;26;19944;-62
2024/04/12 07:08:51;;;;;;;;;;;;;;;17.77;45.81;95728.44;4526315;26;19928;-58
2024/04/12 07:10:56;;;;;;;;;;;;;;;17.85;45.05;95725.72;4519963;26;19962;-59
2024/04/12 07:12:58;;;;;;;;;;;;;;;17.73;45.17;95729.78;4527636;26;20107;-59
2024/04/12 07:15:00;;;;;;;;;;;;;;;17.96;45.44;95725.31;4531169;26;20362;-61
2024/04/12 07:17:19;;;;;;;;;;;;;;;18.11;44.75;95720.03;4526628;26;19928;-64
2024/04/12 07:19:23;;;;;;;;;;;;;;;18.51;44.02;95719.78;4535617;26;19932;-60
2024/04/12 07:21:26;;;;;;;;;;;;;;;18.83;43.49;95718.59;4532138;26;19929;-60
2024/04/12 07:23:31;;;;;;;;;;;;;;;18.90;42.76;95719.50;4534148;26;19997;-60
2024/04/12 07:25:33;;;;;;;;;;;;;;;18.81;42.26;95723.28;4521661;26;19929;-59
2024/04/12 07:27:40;;;;;;;;;;;;;;;18.79;42.00;95717.31;4534307;26;19932;-60
2024/04/12 07:29:46;;;;;;;;;;;;;;;18.85;42.23;95715.78;4529425;26;20264;-60
2024/04/12 07:31:53;;;;;;;;;;;;;;;19.01;41.83;95707.56;4533458;26;19940;-60
2024/04/12 07:33:59;;;;;;;;;;;;;;;19.14;41.27;95715.69;4518553;26;20420;-61
2024/04/12 07:36:10;;;;;;;;;;;;;;;19.29;40.59;95717.47;4530280;26;19952;-60
2024/04/12 07:38:12;;;;;;;;;;;;;;;19.30;40.21;95713.81;4543264;26;19928;-60
2024/04/12 07:40:20;;;;;;;;;;;;;;;19.23;39.83;95714.56;4532885;26;19928;-61
2024/04/12 07:42:22;;;;;;;;;;;;;;;19.19;39.45;95708.00;4520587;26;19944;-61
2024/04/12 07:44:24;;;;;;;;;;;;;;;19.27;39.82;95711.53;4535339;26;19934;-61
2024/04/12 07:46:33;;;;;;;;;;;;;;;19.37;39.63;95701.44;4516985;26;20010;-60
2024/04/12 07:48:36;;;;;;;;;;;;;;;19.45;39.60;95706.63;4531090;26;19932;-61
2024/04/12 07:50:41;;;;;;;;;;;;;;;19.62;39.41;95697.38;4522561;26;19931;-61
2024/04/12 07:52:44;;;;;;;;;;;;;;;19.86;39.18;95697.19;4535614;26;19928;-59
2024/04/12 07:54:46;;;;;;;;;;;;;;;20.12;38.79;95701.91;4531872;26;20284;-61
2024/04/12 07:57:07;;;;;;;;;;;;;;;20.35;38.42;95694.47;4519118;26;20014;-58
2024/04/12 07:59:47;;;;;;;;;;;;;;;20.66;38.77;95695.91;4517741;26;19962;-59
2024/04/12 08:01:38;;;;;;;;;;;;;;;20.20;38.79;95699.91;4524437;26;19931;-60
2024/04/12 08:03:41;;;;;;;;;;;;;;;19.77;38.86;95704.50;4525004;26;20526;-60
2024/04/12 08:05:59;;;;;;;;;;;;;;;19.61;38.94;95702.88;4534133;26;20343;-61
2024/04/12 08:08:14;;;;;;;;;;;;;;;19.72;38.95;95696.25;4524647;26;20115;-60
2024/04/12 08:10:29;;;;;;;;;;;;;;;19.95;38.44;95698.69;4525491;26;19936;-60
2024/04/12 08:12:33;;;;;;;;;;;;;;;20.35;38.27;95697.13;4535554;26;19981;-60
2024/04/12 08:14:38;;;;;;;;;;;;;;;20.69;38.37;95694.69;4534343;26;19975;-59
2024/04/12 08:16:46;;;;;;;;;;;;;;;21.00;37.57;95703.00;4514260;26;20889;-60
2024/04/12 08:18:48;;;;;;;;;;;;;;;21.24;36.65;95693.66;4525355;26;19970;-61
2024/04/12 08:21:02;;;;;;;;;;;;;;;21.45;36.80;95691.88;4532792;26;20046;-61
2024/04/12 08:23:04;;;;;;;;;;;;;;;21.50;36.48;95693.94;4522363;26;19939;-60
2024/04/12 08:25:06;;;;;;;;;;;;;;;21.70;36.57;95689.44;4531731;26;19996;-61
2024/04/12 08:27:08;;;;;;;;;;;;;;;21.86;35.99;95693.56;4527253;26;19935;-60
2024/04/12 08:29:19;;;;;;;;;;;;;;;22.01;35.94;95691.50;4516985;26;20670;-62
2024/04/12 08:31:23;;;;;;;;;;;;;;;21.97;35.53;95684.94;4530878;26;20231;-60
2024/04/12 08:33:28;;;;;;;;;;;;;;;21.97;35.59;95690.28;4532572;26;19928;-57
2024/04/12 08:35:31;;;;;;;;;;;;;;;22.05;35.91;95690.06;4533282;26;19968;-61
2024/04/12 08:37:38;;;;;;;;;;;;;;;22.15;35.64;95686.16;4535314;26;19983;-61
2024/04/12 08:39:43;;;;;;;;;;;;;;;22.24;35.76;95683.09;4528655;26;19928;-59
2024/04/12 08:41:47;;;;;;;;;;;;;;;22.36;35.45;95685.13;4532686;26;19928;-61
2024/04/12 08:43:53;;;;;;;;;;;;;;;22.51;35.04;95683.03;4534521;26;19948;-59
2024/04/12 08:45:58;;;;;;;;;;;;;;;22.55;34.79;95686.13;4533738;26;19928;-61
2024/04/12 08:48:04;;;;;;;;;;;;;;;22.41;34.72;95696.00;4524498;26;19942;-61
2024/04/12 08:50:06;;;;;;;;;;;;;;;22.51;34.52;95685.72;4534714;26;20332;-60
2024/04/12 08:52:24;;;;;;;;;;;;;;;22.52;34.11;95681.19;4516868;26;21473;-63
2024/04/12 08:54:26;;;;;;;;;;;;;;;21.40;36.44;95683.63;4530165;26;19928;-60
2024/04/12 08:56:29;;;;;;;;;;;;;;;21.31;36.73;95676.84;4534058;26;20008;-62
2024/04/12 08:58:30;;;;;;;;;;;;;;;21.42;36.33;95676.28;4521629;26;20459;-60
2024/04/12 09:00:32;;;;;;;;;;;;;;;21.44;36.56;95668.91;4526625;26;19932;-61
2024/04/12 09:02:40;;;;;;;;;;;;;;;21.76;36.59;95669.97;4523898;26;19983;-61
2024/04/12 09:04:45;;;;;;;;;;;;;;;22.19;35.98;95669.50;4525878;26;20477;-59
2024/04/12 09:06:48;;;;;;;;;;;;;;;22.40;34.63;95673.81;4530795;26;19940;-62
2024/04/12 09:08:51;;;;;;;;;;;;;;;22.09;35.29;95661.09;4517441;26;20364;-60
2024/04/12 09:10:59;;;;;;;;;;;;;;;21.84;35.94;95668.94;4537813;26;20005;-61
2024/04/12 09:13:14;;;;;;;;;;;;;;;22.02;35.55;95658.44;4527796;26;20005;-61
2024/04/12 09:15:27;;;;;;;;;;;;;;;22.27;35.77;95664.00;4529064;26;19952;-61
2024/04/12 09:17:29;;;;;;;;;;;;;;;22.26;35.36;95659.69;4525975;26;20378;-60
2024/04/12 09:19:38;;;;;;;;;;;;;;;21.76;35.30;95655.81;4532783;26;19928;-62
2024/04/12 09:21:58;;;;;;;;;;;;;;;21.44;36.25;95655.56;4532730;26;20392;-60
2024/04/12 09:24:09;;;;;;;;;;;;;;;21.52;36.46;95654.56;4534547;26;20457;-60
2024/04/12 09:26:39;;;;;;;;;;;;;;;21.61;36.36;95648.81;4523913;26;19928;-60
2024/04/12 09:28:44;;;;;;;;;;;;;;;21.48;36.61;95649.63;4537536;26;20302;-61
2024/04/12 09:33:20;;;;;;;;;;;;;;;21.73;36.49;95646.38;4527776;26;20299;-61
2024/04/12 09:35:26;;;;;;;;;;;;;;;22.20;36.25;95636.47;4532648;26;19928;-61
2024/04/12 09:37:29;;;;;;;;;;;;;;;22.58;35.33;95642.97;4527592;26;20039;-60
2024/04/12 09:41:56;;;;;;;;;;;;;;;22.81;34.07;95635.25;4554536;25;20279;-61
2024/04/12 09:43:59;;;;;;;;;;;;;;;22.80;34.46;95630.97;4533116;26;20073;-61
2024/04/12 09:46:10;;;;;;;;;;;;;;;23.02;34.14;95630.69;4548197;26;20000;-62
2024/04/12 10:38:02;;;;;;;;;;;;;;;23.49;33.61;95585.75;4516049;26;19931;-63
2024/04/12 10:40:05;;;;;;;;;;;;;;;23.77;33.38;95587.16;4528750;26;20004;-61
2024/04/12 10:42:07;;;;;;;;;;;;;;;23.79;32.92;95590.44;4524636;26;19963;-58
2024/04/12 10:44:10;;;;;;;;;;;;;;;23.94;32.72;95582.06;4510197;26;19928;-61
2024/04/12 10:46:12;;;;;;;;;;;;;;;24.08;32.32;95584.38;4506531;26;20256;-60
2024/04/12 10:48:42;;;;;;;;;;;;;;;23.96;32.10;95591.50;4530334;26;19935;-57
2024/04/12 10:50:48;;;;;;;;;;;;;;;24.06;32.33;95577.63;4521859;26;20035;-61
2024/04/12 10:52:51;;;;;;;;;;;;;;;24.27;31.92;95571.84;4526725;26;19997;-59
2024/04/12 10:54:53;;;;;;;;;;;;;;;24.37;31.44;95568.66;4529959;26;20367;-60
2024/04/12 10:56:56;;;;;;;;;;;;;;;24.39;32.21;95571.88;4516698;26;19928;-62
2024/04/12 10:59:05;;;;;;;;;;;;;;;24.43;31.95;95574.94;4532685;26;20042;-61
2024/04/12 11:01:08;;;;;;;;;;;;;;;23.79;32.22;95569.03;4528118;26;19940;-61
2024/04/12 11:03:17;;;;;;;;;;;;;;;23.73;32.65;95559.22;4524962;26;19931;-61
2024/04/12 11:05:38;;;;;;;;;;;;;;;23.58;32.91;95552.34;4521200;26;20279;-60
2024/04/12 11:07:41;;;;;;;;;;;;;;;23.85;32.98;95549.44;4527439;26;20053;-61
2024/04/12 11:09:43;;;;;;;;;;;;;;;24.21;32.67;95550.50;4530967;26;19934;-62
2024/04/12 11:11:46;;;;;;;;;;;;;;;24.42;32.00;95542.00;4519206;26;19939;-60
2024/04/12 11:13:52;;;;;;;;;;;;;;;24.61;31.92;95540.16;4532373;26;20034;-62
2024/04/12 11:32:12;;;;;;;;;;;;;;;24.28;30.80;95529.81;4530958;26;20016;-61
2024/04/12 11:34:17;;;;;;;;;;;;;;;24.24;31.25;95528.63;4518078;26;19940;-60
2024/04/12 11:36:33;;;;;;;;;;;;;;;23.92;31.23;95532.28;4525319;26;20339;-61
2024/04/12 11:38:37;;;;;;;;;;;;;;;24.11;31.14;95530.44;4542847;26;19996;-60
2024/04/12 11:40:40;;;;;;;;;;;;;;;23.95;31.07;95525.66;4542066;26;20023;-61
2024/04/12 11:42:45;;;;;;;;;;;;;;;24.06;30.79;95521.41;4536313;26;20087;-59
2024/04/12 11:44:53;;;;;;;;;;;;;;;23.74;31.55;95521.50;4525170;26;19928;-59
2024/04/12 11:46:56;;;;;;;;;;;;;;;23.38;31.39;95507.06;4528056;26;20022;-61
2024/04/12 11:49:07;;;;;;;;;;;;;;;23.50;31.71;95507.97;4533460;26;20281;-58
2024/04/12 11:51:09;;;;;;;;;;;;;;;23.89;31.85;95518.50;4527803;26;20416;-62
2024/04/12 11:53:11;;;;;;;;;;;;;;;24.26;31.42;95515.81;4528661;26;20356;-61
2024/04/12 11:55:13;;;;;;;;;;;;;;;24.60;30.80;95506.34;4520586;26;20011;-62
2024/04/12 11:57:19;;;;;;;;;;;;;;;24.76;30.54;95510.28;4514911;26;19995;-62
2024/04/12 11:59:27;;;;;;;;;;;;;;;24.82;29.60;95503.97;4519536;26;20332;-61
2024/04/12 12:01:29;;;;;;;;;;;;;;;24.68;29.40;95503.34;4531103;26;19935;-61